createdAt,value
2018-02-12T00:01:07.356Z,99295.02
2018-02-12T00:03:36.523Z,99300.87
2018-02-12T00:06:06.012Z,99304.95
2018-02-12T00:08:37.336Z,99308.63
2018-02-12T00:11:08.247Z,99303.82
2018-02-12T00:13:37.978Z,99311.49
2018-02-12T00:16:08.900Z,99309.51
2018-02-12T00:18:39.520Z,99310.81
2018-02-12T00:21:12.787Z,99310.81
2018-02-12T00:23:42.599Z,99305.41
2018-02-12T00:26:12.095Z,99314.14
2018-02-12T00:28:43.549Z,99309.75
2018-02-12T00:31:14.031Z,99315.19
2018-02-12T00:33:45.009Z,99314.20
2018-02-12T00:36:15.479Z,99314.13
2018-02-12T00:38:46.044Z,99326.61
2018-02-12T00:41:16.538Z,99322.19
2018-02-12T00:43:46.374Z,99332.62
2018-02-12T00:46:16.870Z,99330.28
2018-02-12T00:48:47.959Z,99331.09
2018-02-12T00:51:18.871Z,99327.73
2018-02-12T00:53:49.755Z,99330.48
2018-02-12T00:56:24.023Z,99337.34
2018-02-12T00:58:53.875Z,99342.51
2018-02-12T01:01:24.570Z,99344.63
2018-02-12T01:03:55.519Z,99340.66
2018-02-12T01:06:26.419Z,99344.52
2018-02-12T01:08:57.505Z,99346.25
2018-02-12T01:11:28.023Z,99346.36
2018-02-12T01:13:58.648Z,99340.84
2018-02-12T01:16:29.527Z,99344.98
2018-02-12T01:19:00.486Z,99344.52
2018-02-12T01:21:31.480Z,99349.05
2018-02-12T01:24:05.177Z,99348.62
2018-02-12T01:26:34.255Z,99350.44
2018-02-12T01:29:05.556Z,99350.83
2018-02-12T01:31:36.067Z,99345.59
2018-02-12T01:34:06.596Z,99350.78
2018-02-12T01:36:37.083Z,99347.74
2018-02-12T01:39:07.601Z,99345.48
2018-02-12T01:41:39.185Z,99347.31
2018-02-12T01:44:09.807Z,99351.88
2018-02-12T01:46:40.500Z,99345.93
2018-02-12T01:49:11.450Z,99350.48
2018-02-12T01:51:42.383Z,99350.39
2018-02-12T01:54:12.396Z,99353.41
2018-02-12T01:56:43.042Z,99354.59
2018-02-12T01:59:13.764Z,99355.70
2018-02-12T02:01:45.195Z,99358.54
2018-02-12T02:04:16.636Z,99358.58
2018-02-12T02:06:47.530Z,99356.56
2018-02-12T02:09:20.156Z,99359.59
2018-02-12T02:11:49.841Z,99359.07
2018-02-12T02:14:20.375Z,99349.81
2018-02-12T02:16:50.871Z,99354.45
2018-02-12T02:19:21.827Z,99357.11
2018-02-12T02:21:52.430Z,99353.39
2018-02-12T02:24:23.793Z,99359.05
2018-02-12T02:26:54.539Z,99354.42
2018-02-12T02:29:25.105Z,99358.98
2018-02-12T02:31:55.680Z,99360.22
2018-02-12T02:34:26.089Z,99350.48
2018-02-12T02:36:56.340Z,99352.89
2018-02-12T02:39:27.388Z,99358.79
2018-02-12T02:41:58.235Z,99358.55
2018-02-12T02:44:29.593Z,99359.92
2018-02-12T02:47:00.963Z,99364.20
2018-02-12T02:49:31.575Z,99370.47
2018-02-12T02:52:02.463Z,99362.66
2018-02-12T02:54:33.367Z,99367.17
2018-02-12T02:57:05.001Z,99364.42
2018-02-12T02:59:35.714Z,99370.47
2018-02-12T03:02:06.044Z,99376.59
2018-02-12T03:04:41.352Z,99379.20
2018-02-12T03:07:10.600Z,99382.25
2018-02-12T03:09:39.724Z,99380.02
2018-02-12T03:12:08.915Z,99390.56
2018-02-12T03:14:39.934Z,99387.06
2018-02-12T03:17:10.143Z,99398.13
2018-02-12T03:19:40.972Z,99403.80
2018-02-12T03:22:11.594Z,99402.95
2018-02-12T03:24:43.142Z,99400.82
2018-02-12T03:27:13.603Z,99412.11
2018-02-12T03:29:43.860Z,99411.22
2018-02-12T03:32:14.357Z,99411.39
2018-02-12T03:34:45.194Z,99411.22
2018-02-12T03:37:16.620Z,99412.42
2018-02-12T03:39:47.892Z,99411.22
2018-02-12T03:42:17.922Z,99414.68
2018-02-12T03:44:49.575Z,99415.56
2018-02-12T03:47:25.372Z,99419.67
2018-02-12T03:49:54.554Z,99423.63
2018-02-12T03:52:23.759Z,99425.72
2018-02-12T03:54:54.143Z,99426.00
2018-02-12T03:57:25.340Z,99418.96
2018-02-12T03:59:54.959Z,99425.12
2018-02-12T04:02:25.607Z,99430.77
2018-02-12T04:04:55.480Z,99423.81
2018-02-12T04:07:26.023Z,99424.87
2018-02-12T04:09:57.759Z,99432.02
2018-02-12T04:12:29.198Z,99432.37
2018-02-12T04:14:59.672Z,99440.08
2018-02-12T04:17:30.532Z,99438.17
2018-02-12T04:20:01.087Z,99441.09
2018-02-12T04:22:31.784Z,99441.88
2018-02-12T04:25:03.339Z,99445.98
2018-02-12T04:27:33.942Z,99452.77
2018-02-12T04:30:04.214Z,99456.63
2018-02-12T04:32:35.767Z,99461.02
2018-02-12T04:35:06.229Z,99463.25
2018-02-12T04:37:35.956Z,99467.73
2018-02-12T04:40:06.895Z,99464.91
2018-02-12T04:42:40.640Z,99466.11
2018-02-12T04:45:09.824Z,99463.39
2018-02-12T04:47:39.209Z,99463.31
2018-02-12T04:50:10.215Z,99461.41
2018-02-12T04:52:40.814Z,99462.40
2018-02-12T04:55:11.546Z,99455.75
2018-02-12T04:57:42.401Z,99459.92
2018-02-12T05:00:14.274Z,99466.44
2018-02-12T05:02:45.063Z,99467.21
2018-02-12T05:05:15.554Z,99474.71
2018-02-12T05:07:46.526Z,99474.71
2018-02-12T05:10:18.303Z,99480.66
2018-02-12T05:12:48.987Z,99478.85
2018-02-12T05:15:18.238Z,99484.62
2018-02-12T05:17:49.164Z,99486.21
2018-02-12T05:20:19.582Z,99485.96
2018-02-12T05:22:50.212Z,99490.20
2018-02-12T05:25:20.819Z,99475.23
2018-02-12T05:27:52.545Z,99481.61
2018-02-12T05:30:24.821Z,99481.25
2018-02-12T05:32:54.206Z,99478.36
2018-02-12T05:35:24.379Z,99473.19
2018-02-12T05:37:56.463Z,99492.97
2018-02-12T05:40:28.117Z,99488.58
2018-02-12T05:42:57.812Z,99490.06
2018-02-12T05:45:29.489Z,99489.75
2018-02-12T05:48:00.054Z,99504.33
2018-02-12T05:50:30.481Z,99505.59
2018-02-12T05:53:01.864Z,99520.22
2018-02-12T05:55:32.907Z,99521.24
2018-02-12T05:58:04.284Z,99533.52
2018-02-12T06:00:33.840Z,99529.23
2018-02-12T06:03:04.603Z,99534.30
2018-02-12T06:05:35.330Z,99540.13
2018-02-12T06:08:06.264Z,99536.31
2018-02-12T06:10:37.596Z,99551.45
2018-02-12T06:13:09.198Z,99553.08
2018-02-12T06:15:39.829Z,99550.38
2018-02-12T06:18:09.153Z,99562.10
2018-02-12T06:20:39.812Z,99566.31
2018-02-12T06:23:10.729Z,99570.20
2018-02-12T06:25:42.497Z,99575.97
2018-02-12T06:28:12.999Z,99572.50
2018-02-12T06:30:43.989Z,99585.91
2018-02-12T06:33:14.409Z,99576.78
2018-02-12T06:35:45.204Z,99582.87
2018-02-12T06:38:15.794Z,99582.69
2018-02-12T06:40:46.785Z,99583.70
2018-02-12T06:43:18.576Z,99580.73
2018-02-12T06:45:49.180Z,99588.09
2018-02-12T06:48:19.682Z,99594.00
2018-02-12T06:50:51.142Z,99596.69
2018-02-12T06:53:21.796Z,99591.88
2018-02-12T06:55:52.153Z,99592.05
2018-02-12T06:58:22.965Z,99597.74
2018-02-12T07:00:53.891Z,99602.63
2018-02-12T07:03:25.386Z,99601.42
2018-02-12T07:05:56.729Z,99605.12
2018-02-12T07:08:27.433Z,99608.52
2018-02-12T07:10:58.016Z,99611.48
2018-02-12T07:16:20.213Z,99616.02
2018-02-12T07:18:49.040Z,99620.70
2018-02-12T07:21:18.191Z,99623.28
2018-02-12T07:23:48.227Z,99622.69
2018-02-12T07:26:17.363Z,99622.91
2018-02-12T07:28:46.609Z,99628.39
2018-02-12T07:31:16.000Z,99633.15
2018-02-12T07:33:46.351Z,99636.83
2018-02-12T07:36:16.579Z,99637.90
2018-02-12T07:38:46.643Z,99633.30
2018-02-12T07:41:15.888Z,99643.53
2018-02-12T07:43:45.077Z,99644.14
2018-02-12T07:46:15.803Z,99641.14
2018-02-12T07:48:45.147Z,99650.06
2018-02-12T07:51:14.366Z,99650.36
2018-02-12T07:53:44.952Z,99654.80
2018-02-12T07:56:15.456Z,99645.73
2018-02-12T07:58:46.388Z,99651.36
2018-02-12T08:01:18.353Z,99650.83
2018-02-12T08:03:51.192Z,99655.85
2018-02-12T08:06:20.291Z,99652.69
2018-02-12T08:08:50.271Z,99657.97
2018-02-12T08:11:20.591Z,99658.17
2018-02-12T08:13:51.385Z,99655.83
2018-02-12T08:16:22.305Z,99658.69
2018-02-12T08:18:53.127Z,99660.82
2018-02-12T08:21:24.762Z,99665.71
2018-02-12T08:23:56.503Z,99670.21
2018-02-12T08:26:27.954Z,99663.59
2018-02-12T08:28:57.835Z,99662.00
2018-02-12T08:31:28.517Z,99663.94
2018-02-12T08:33:59.281Z,99666.30
2018-02-12T08:36:30.123Z,99661.20
2018-02-12T08:39:08.448Z,99668.81
2018-02-12T08:41:37.603Z,99674.20
2018-02-12T08:44:06.814Z,99672.37
2018-02-12T08:46:35.957Z,99663.45
2018-02-12T08:49:06.199Z,99672.98
2018-02-12T08:51:36.508Z,99677.36
2018-02-12T08:54:07.425Z,99681.97
2018-02-12T08:56:37.916Z,99673.94
2018-02-12T08:59:09.288Z,99684.92
2018-02-12T09:01:39.716Z,99685.62
2018-02-12T09:04:10.378Z,99692.30
2018-02-12T09:06:42.651Z,99696.17
2018-02-12T09:09:13.231Z,99701.09
2018-02-12T09:11:43.697Z,99700.91
2018-02-12T09:14:14.072Z,99716.90
2018-02-12T09:16:44.460Z,99707.06
2018-02-12T09:19:15.324Z,99713.36
2018-02-12T09:21:45.895Z,99715.81
2018-02-12T09:24:16.554Z,99713.95
2018-02-12T09:26:47.798Z,99713.66
2018-02-12T09:29:18.439Z,99718.28
2018-02-12T09:31:49.317Z,99727.91
2018-02-12T09:34:20.318Z,99721.75
2018-02-12T09:36:51.211Z,99723.89
2018-02-12T09:39:21.655Z,99726.31
2018-02-12T09:41:52.369Z,99729.46
2018-02-12T09:44:23.304Z,99726.70
2018-02-12T09:46:54.117Z,99733.44
2018-02-12T09:49:25.711Z,99737.97
2018-02-12T09:51:58.001Z,99732.99
2018-02-12T09:54:27.795Z,99733.62
2018-02-12T09:56:58.328Z,99738.73
2018-02-12T09:59:29.240Z,99741.02
2018-02-12T10:02:00.483Z,99742.09
2018-02-12T10:04:31.335Z,99741.16
2018-02-12T10:07:01.788Z,99754.36
2018-02-12T10:09:32.399Z,99750.66
2018-02-12T10:12:03.183Z,99747.48
2018-02-12T10:14:34.519Z,99750.47
2018-02-12T10:17:05.199Z,99749.75
2018-02-12T10:19:36.184Z,99749.48
2018-02-12T10:22:07.120Z,99743.61
2018-02-12T10:24:37.555Z,99743.07
2018-02-12T10:27:08.362Z,99751.13
2018-02-12T10:29:39.246Z,99746.98
2018-02-12T10:32:10.144Z,99753.44
2018-02-12T10:34:41.582Z,99761.29
2018-02-12T10:37:12.109Z,99755.45
2018-02-12T10:39:42.519Z,99759.08
2018-02-12T10:42:13.373Z,99755.62
2018-02-12T10:44:44.007Z,99755.70
2018-02-12T10:47:14.775Z,99755.97
2018-02-12T10:49:45.217Z,99761.52
2018-02-12T10:52:15.652Z,99757.08
2018-02-12T10:54:46.596Z,99757.98
2018-02-12T10:57:17.484Z,99755.48
2018-02-12T10:59:48.366Z,99756.12
2018-02-12T11:02:18.897Z,99752.23
2018-02-12T11:04:49.480Z,99762.42
2018-02-12T11:07:19.911Z,99770.52
2018-02-12T11:09:50.560Z,99771.02
2018-02-12T11:12:21.407Z,99777.94
2018-02-12T11:14:52.272Z,99769.44
2018-02-12T11:17:23.067Z,99768.78
2018-02-12T11:19:54.464Z,99763.52
2018-02-12T11:22:25.238Z,99770.88
2018-02-12T11:24:56.280Z,99767.13
2018-02-12T11:27:27.115Z,99784.67
2018-02-12T11:29:58.412Z,99767.27
2018-02-12T11:32:29.299Z,99770.32
2018-02-12T11:35:00.200Z,99780.50
2018-02-12T11:37:31.557Z,99770.34
2018-02-12T11:40:02.490Z,99766.38
2018-02-12T11:42:33.273Z,99771.77
2018-02-12T11:45:04.576Z,99769.28
2018-02-12T11:47:35.386Z,99772.20
2018-02-12T11:50:06.279Z,99771.56
2018-02-12T11:52:37.021Z,99778.25
2018-02-12T11:55:08.512Z,99768.49
2018-02-12T11:57:39.574Z,99777.61
2018-02-12T12:00:10.411Z,99781.13
2018-02-12T12:02:41.178Z,99782.67
2018-02-12T12:05:12.515Z,99779.63
2018-02-12T12:07:43.315Z,99786.06
2018-02-12T12:10:15.290Z,99784.46
2018-02-12T12:12:45.810Z,99780.36
2018-02-12T12:15:16.458Z,99783.39
2018-02-12T12:17:47.394Z,99785.59
2018-02-12T12:20:18.643Z,99792.98
2018-02-12T12:22:49.004Z,99792.30
2018-02-12T12:25:19.801Z,99795.08
2018-02-12T12:27:50.395Z,99795.16
2018-02-12T12:30:20.882Z,99794.80
2018-02-12T12:32:51.398Z,99794.16
2018-02-12T12:35:22.277Z,99788.36
2018-02-12T12:37:52.687Z,99792.45
2018-02-12T12:40:23.435Z,99796.74
2018-02-12T12:42:54.216Z,99797.28
2018-02-12T12:45:25.604Z,99781.65
2018-02-12T12:47:56.319Z,99785.18
2018-02-12T12:50:27.232Z,99779.64
2018-02-12T12:52:58.215Z,99772.66
2018-02-12T12:55:29.148Z,99778.64
2018-02-12T12:58:00.523Z,99776.95
2018-02-12T13:00:31.082Z,99778.45
2018-02-12T13:03:01.487Z,99778.59
2018-02-12T13:05:32.414Z,99779.61
2018-02-12T13:08:04.112Z,99777.09
2018-02-12T13:10:34.480Z,99782.23
2018-02-12T13:13:04.954Z,99781.94
2018-02-12T13:15:35.619Z,99789.95
2018-02-12T13:18:06.311Z,99788.08
2018-02-12T13:20:37.204Z,99788.44
2018-02-12T13:23:07.563Z,99803.69
2018-02-12T13:25:38.453Z,99799.18
2018-02-12T13:28:09.240Z,99800.83
2018-02-12T13:30:40.162Z,99798.00
2018-02-12T13:33:11.001Z,99793.17
2018-02-12T13:35:41.469Z,99796.20
2018-02-12T13:38:12.394Z,99809.55
2018-02-12T13:40:43.442Z,99807.32
2018-02-12T13:43:14.244Z,99813.30
2018-02-12T13:45:45.807Z,99816.56
2018-02-12T13:48:16.356Z,99813.95
2018-02-12T13:50:47.241Z,99817.92
2018-02-12T13:56:03.541Z,99817.35
2018-02-12T13:58:34.729Z,99815.13
2018-02-12T14:01:03.982Z,99816.50
2018-02-12T14:03:33.446Z,99825.42
2018-02-12T14:06:02.555Z,99825.05
2018-02-12T14:08:31.802Z,99830.63
2018-02-12T14:11:00.963Z,99833.94
2018-02-12T14:13:30.029Z,99833.52
2018-02-12T14:15:59.459Z,99835.99
2018-02-12T14:18:28.533Z,99832.79
2018-02-12T14:20:59.032Z,99841.27
2018-02-12T14:23:29.533Z,99834.30
2018-02-12T14:26:00.344Z,99838.23
2018-02-12T14:28:31.195Z,99842.91
2018-02-12T14:31:02.083Z,99849.23
2018-02-12T14:33:33.429Z,99852.27
2018-02-12T14:36:04.045Z,99859.33
2018-02-12T14:38:34.484Z,99865.09
2018-02-12T14:41:05.356Z,99875.11
2018-02-12T14:43:35.902Z,99872.94
2018-02-12T14:46:06.667Z,99879.97
2018-02-12T14:48:37.098Z,99880.19
2018-02-12T14:51:07.485Z,99886.20
2018-02-12T14:53:38.347Z,99886.55
2018-02-12T14:56:08.898Z,99887.17
2018-02-12T14:58:39.518Z,99886.42
2018-02-12T15:01:10.372Z,99890.94
2018-02-12T15:03:41.284Z,99896.25
2018-02-12T15:06:12.122Z,99893.12
2018-02-12T15:08:43.500Z,99894.56
2018-02-12T15:11:14.331Z,99897.78
2018-02-12T15:13:44.886Z,99900.55
2018-02-12T15:16:15.555Z,99896.95
2018-02-12T15:18:46.159Z,99904.98
2018-02-12T15:21:17.003Z,99900.80
2018-02-12T15:23:47.528Z,99903.00
2018-02-12T15:26:18.372Z,99905.83
2018-02-12T15:28:49.237Z,99917.92
2018-02-12T15:31:20.542Z,99921.38
2018-02-12T15:33:51.437Z,99918.08
2018-02-12T15:36:22.305Z,99923.75
2018-02-12T15:38:52.920Z,99925.33
2018-02-12T15:41:23.456Z,99934.80
2018-02-12T15:43:54.311Z,99931.05
2018-02-12T15:46:25.100Z,99933.34
2018-02-12T15:48:56.338Z,99941.30
2018-02-12T15:51:26.776Z,99935.80
2018-02-12T15:53:57.740Z,99945.09
2018-02-12T15:56:28.531Z,99943.19
2018-02-12T15:58:59.397Z,99950.03
2018-02-12T16:01:30.199Z,99948.83
2018-02-12T16:04:01.147Z,99958.50
2018-02-12T16:06:32.449Z,99964.38
2018-02-12T16:09:03.416Z,99965.38
2018-02-12T16:11:34.229Z,99968.11
2018-02-12T16:14:05.148Z,99976.06
2018-02-12T16:16:36.392Z,99978.44
2018-02-12T16:19:07.255Z,99982.56
2018-02-12T16:21:37.536Z,99982.88
2018-02-12T16:24:08.408Z,99991.91
2018-02-12T16:26:38.854Z,99996.58
2018-02-12T16:29:09.451Z,99996.80
2018-02-12T16:32:05.034Z,100002.67
2018-02-12T16:34:35.375Z,100009.62
2018-02-12T16:37:04.383Z,100010.41
2018-02-12T16:39:33.210Z,100016.00
2018-02-12T16:42:02.350Z,100021.58
2018-02-12T16:44:31.867Z,100025.82
2018-02-12T16:47:01.091Z,100024.83
2018-02-12T16:49:30.201Z,100027.28
2018-02-12T16:51:59.631Z,100025.73
2018-02-12T16:54:28.821Z,100025.13
2018-02-12T16:56:58.094Z,100031.60
2018-02-12T16:59:27.201Z,100033.23
2018-02-12T17:01:56.662Z,100030.39
2018-02-12T17:04:25.861Z,100030.42
2018-02-12T17:06:55.056Z,100032.23
2018-02-12T17:09:24.778Z,100031.38
2018-02-12T17:11:55.446Z,100034.64
2018-02-12T17:14:26.390Z,100035.66
2018-02-12T17:16:57.323Z,100035.36
2018-02-12T17:19:28.306Z,100048.25
2018-02-12T17:21:59.190Z,100051.18
2018-02-12T17:24:30.682Z,100050.92
2018-02-12T17:27:01.622Z,100059.59
2018-02-12T17:29:32.442Z,100063.81
2018-02-12T17:32:03.366Z,100064.87
2018-02-12T17:34:34.052Z,100061.97
2018-02-12T17:37:04.537Z,100069.95
2018-02-12T17:39:35.584Z,100073.50
2018-02-12T17:42:06.434Z,100075.05
2018-02-12T17:44:37.039Z,100079.68
2018-02-12T17:47:07.549Z,100075.48
2018-02-12T17:49:38.476Z,100082.93
2018-02-12T17:52:09.361Z,100080.77
2018-02-12T17:54:40.320Z,100084.60
2018-02-12T17:57:11.242Z,100084.53
2018-02-12T17:59:42.567Z,100083.81
2018-02-12T18:02:13.511Z,100087.48
2018-02-12T18:04:44.431Z,100092.22
2018-02-12T18:07:15.302Z,100088.44
2018-02-12T18:09:46.243Z,100094.06
2018-02-12T18:12:17.167Z,100091.99
2018-02-12T18:14:48.491Z,100098.69
2018-02-12T18:17:19.370Z,100097.72
2018-02-12T18:19:50.738Z,100105.47
2018-02-12T18:22:21.396Z,100108.00
2018-02-12T18:24:51.946Z,100110.80
2018-02-12T18:27:22.518Z,100110.11
2018-02-12T18:29:53.461Z,100116.88
2018-02-12T18:32:24.361Z,100116.55
2018-02-12T18:34:55.279Z,100118.50
2018-02-12T18:37:26.130Z,100113.27
2018-02-12T18:39:57.554Z,100121.70
2018-02-12T18:42:27.992Z,100121.73
2018-02-12T18:44:59.270Z,100127.64
2018-02-12T18:47:30.146Z,100128.31
2018-02-12T18:50:01.169Z,100130.62
2018-02-12T18:52:32.051Z,100137.08
2018-02-12T18:55:03.559Z,100136.16
2018-02-12T18:57:34.254Z,100143.41
2018-02-12T19:00:04.722Z,100137.44
2018-02-12T19:02:35.479Z,100150.16
2018-02-12T19:05:06.646Z,100142.03
2018-02-12T19:07:37.093Z,100150.83
2018-02-12T19:10:07.843Z,100157.00
2018-02-12T19:12:38.720Z,100159.80
2018-02-12T19:15:10.148Z,100169.56
2018-02-12T19:17:40.784Z,100173.25
2018-02-12T19:20:12.232Z,100175.22
2018-02-12T19:22:42.910Z,100180.20
2018-02-12T19:25:13.855Z,100184.54
2018-02-12T19:27:44.665Z,100179.52
2018-02-12T19:30:15.109Z,100184.02
2018-02-12T19:32:45.759Z,100183.31
2018-02-12T19:35:16.283Z,100187.55
2018-02-12T19:37:46.877Z,100191.01
2018-02-12T19:40:17.873Z,100188.80
2018-02-12T19:42:48.701Z,100185.08
2018-02-12T19:45:20.386Z,100186.53
2018-02-12T19:47:50.563Z,100190.14
2018-02-12T19:50:22.369Z,100194.72
2018-02-12T19:52:52.862Z,100194.41
2018-02-12T19:55:23.935Z,100190.13
2018-02-12T19:57:54.764Z,100184.09
2018-02-12T20:00:26.233Z,100191.88
2018-02-12T20:02:56.999Z,100191.31
2018-02-12T20:05:27.727Z,100194.30
2018-02-12T20:07:59.007Z,100200.38
2018-02-12T20:10:30.547Z,100199.53
2018-02-12T20:13:01.043Z,100199.73
2018-02-12T20:15:31.858Z,100206.63
2018-02-12T20:18:02.391Z,100204.19
2018-02-12T20:20:33.918Z,100207.32
2018-02-12T20:23:04.651Z,100207.32
2018-02-12T20:25:35.130Z,100205.12
2018-02-12T20:28:05.783Z,100207.46
2018-02-12T20:30:36.742Z,100214.68
2018-02-12T20:33:08.024Z,100216.38
2018-02-12T20:35:38.552Z,100218.20
2018-02-12T20:38:09.205Z,100223.34
2018-02-12T20:40:40.207Z,100222.15
2018-02-12T20:43:11.479Z,100224.42
2018-02-12T20:45:42.544Z,100226.27
2018-02-12T20:48:13.383Z,100222.34
2018-02-12T20:50:44.540Z,100231.13
2018-02-12T20:53:15.411Z,100228.83
2018-02-12T20:55:46.389Z,100230.56
2018-02-12T20:58:17.278Z,100232.23
2018-02-12T21:00:48.202Z,100237.86
2018-02-12T21:03:19.450Z,100233.63
2018-02-12T21:05:51.042Z,100246.64
2018-02-12T21:08:21.504Z,100253.28
2018-02-12T21:10:52.091Z,100253.00
2018-02-12T21:13:22.795Z,100248.90
2018-02-12T21:15:53.591Z,100258.84
2018-02-12T21:18:24.457Z,100254.98
2018-02-12T21:20:55.015Z,100259.84
2018-02-12T21:23:25.513Z,100263.64
2018-02-12T21:25:56.461Z,100271.48
2018-02-12T21:28:27.284Z,100271.00
2018-02-12T21:30:57.557Z,100272.05
2018-02-12T21:33:27.846Z,100279.34
2018-02-12T21:35:58.515Z,100275.59
2018-02-12T21:38:29.024Z,100279.59
2018-02-12T21:40:59.559Z,100281.77
2018-02-12T21:43:30.992Z,100281.70
2018-02-12T21:46:01.519Z,100287.05
2018-02-12T21:48:32.359Z,100293.41
2018-02-12T21:51:03.855Z,100295.20
2018-02-12T21:53:34.139Z,100303.55
2018-02-12T21:56:04.494Z,100307.41
2018-02-12T21:58:35.340Z,100307.52
2018-02-12T22:01:06.313Z,100303.23
2018-02-12T22:06:28.560Z,100304.53
2018-02-12T22:08:57.356Z,100307.14
2018-02-12T22:11:26.139Z,100305.04
2018-02-12T22:13:55.331Z,100311.06
2018-02-12T22:16:24.904Z,100302.31
2018-02-12T22:18:54.003Z,100310.58
2018-02-12T22:21:23.140Z,100311.83
2018-02-12T22:23:52.559Z,100312.82
2018-02-12T22:26:21.763Z,100316.31
2018-02-12T22:28:50.925Z,100311.89
2018-02-12T22:31:19.991Z,100317.06
2018-02-12T22:33:49.078Z,100315.92
2018-02-12T22:36:18.855Z,100317.17
2018-02-12T22:38:50.044Z,100318.98
2018-02-12T22:41:20.599Z,100319.84
2018-02-12T22:43:53.845Z,100319.41
2018-02-12T22:46:24.650Z,100324.32
2018-02-12T22:48:54.117Z,100330.31
2018-02-12T22:51:24.659Z,100328.81
2018-02-12T22:53:55.114Z,100336.15
2018-02-12T22:56:25.551Z,100331.24
2018-02-12T22:58:57.913Z,100342.06
2018-02-12T23:01:28.340Z,100339.50
2018-02-12T23:03:58.771Z,100338.14
2018-02-12T23:06:30.248Z,100342.44
2018-02-12T23:09:00.697Z,100344.12
2018-02-12T23:11:31.045Z,100344.12
2018-02-12T23:14:01.883Z,100344.91
2018-02-12T23:16:32.492Z,100340.12
2018-02-12T23:19:02.255Z,100342.63
2018-02-12T23:21:32.891Z,100345.21
2018-02-12T23:24:03.708Z,100346.89
2018-02-12T23:26:35.039Z,100347.77
2018-02-12T23:29:05.688Z,100354.19
2018-02-12T23:31:37.135Z,100354.73
2018-02-12T23:34:09.366Z,100358.73
2018-02-12T23:36:40.715Z,100359.72
2018-02-12T23:39:11.971Z,100355.00
2018-02-12T23:41:41.909Z,100358.48
2018-02-12T23:44:12.420Z,100362.76
2018-02-12T23:46:43.356Z,100363.20
2018-02-12T23:49:14.184Z,100366.30
2018-02-12T23:51:45.092Z,100369.23
2018-02-12T23:54:26.997Z,100381.37
2018-02-12T23:56:56.126Z,100382.55
2018-02-12T23:59:25.218Z,100379.19
